Terminal Aerodrome Forecast
Issued by NWS

Home | Current Version | Previous Version | Text Only | Print | Product List | Glossary On
Versions: 1 2 3 4 5 6 7 8 9 10 11 12 13 14 15 16
598
FTUS44 KLIX 201742
TAFMSY
TAF
KMSY 201742Z 2018/2124 15021G28KT P6SM VCSH SCT025 BKN250
     FM210100 15007KT P6SM BKN030
     FM211100 14006KT 6SM BR BKN020
     FM211500 14008KT P6SM BKN025=

USA.gov is the U.S. government's official web portal to all federal, state and local government web resources and services.